Terminal Aerodrome Forecast
Issued by NWS

Home | Current Version | Previous Version | Text Only | Print | Product List | Glossary On
Versions: 1 2 3 4 5 6 7 8 9 10 11 12 13 14 15 16 17 18 19 20 21 22
000
FTUS43 KGRR 071319 AAA
TAFBTL
TAF AMD
KBTL 071319Z 0713/0812 24010KT 4SM -RA OVC008
      TEMPO 0713/0715 1 1/2SM +RA BR BKN004
     FM071600 32012G22KT P6SM OVC015
     FM071800 33014G25KT P6SM BKN025
     FM072100 35012KT P6SM BKN250
     FM080300 36004KT P6SM SKC=

USA.gov is the U.S. government's official web portal to all federal, state and local government web resources and services.